createdAt,value
2023-04-22T00:01:20.202Z,12.98
2023-04-22T00:03:50.349Z,12.92
2023-04-22T00:06:19.997Z,12.97
2023-04-22T00:08:48.672Z,12.95
2023-04-22T00:11:18.257Z,12.93
2023-04-22T00:13:46.887Z,12.89
2023-04-22T00:16:16.463Z,12.90
2023-04-22T00:18:45.066Z,12.90
2023-04-22T00:21:15.869Z,12.88
2023-04-22T00:23:45.523Z,12.87
2023-04-22T00:26:15.002Z,12.87
2023-04-22T00:28:43.800Z,12.84
2023-04-22T00:31:12.904Z,12.84
2023-04-22T00:33:41.925Z,12.83
2023-04-22T00:36:10.950Z,12.83
2023-04-22T00:38:41.147Z,12.82
2023-04-22T00:41:10.809Z,12.80
2023-04-22T00:43:39.909Z,12.77
2023-04-22T00:46:10.088Z,12.78
2023-04-22T00:48:39.417Z,12.80
2023-04-22T00:51:09.160Z,12.79
2023-04-22T00:53:37.967Z,12.80
2023-04-22T00:56:08.987Z,12.80
2023-04-22T00:58:37.766Z,12.75
2023-04-22T01:01:06.892Z,12.78
2023-04-22T01:03:40.211Z,12.81
2023-04-22T01:06:09.439Z,12.76
2023-04-22T01:08:38.181Z,12.78
2023-04-22T01:11:08.936Z,12.77
2023-04-22T01:13:38.403Z,12.80
2023-04-22T01:16:10.018Z,12.79
2023-04-22T01:18:38.830Z,12.81
2023-04-22T01:21:08.208Z,12.86
2023-04-22T01:23:39.202Z,12.90
2023-04-22T01:26:08.129Z,12.95
2023-04-22T01:28:37.163Z,12.95
2023-04-22T01:31:06.421Z,12.98
2023-04-22T01:33:35.613Z,12.99
2023-04-22T01:36:04.820Z,13.01
2023-04-22T01:38:34.500Z,13.06
2023-04-22T01:41:05.128Z,13.10
2023-04-22T01:43:34.293Z,13.09
2023-04-22T01:46:04.279Z,13.09
2023-04-22T01:48:32.984Z,13.12
2023-04-22T01:51:01.977Z,13.09
2023-04-22T01:53:30.580Z,13.15
2023-04-22T01:56:00.763Z,13.16
2023-04-22T01:58:31.952Z,13.20
2023-04-22T02:01:00.992Z,13.21
2023-04-22T02:03:29.716Z,13.22
2023-04-22T02:05:58.765Z,13.24
2023-04-22T02:08:27.531Z,13.28
2023-04-22T02:10:56.639Z,13.30
2023-04-22T02:13:25.158Z,13.29
2023-04-22T02:15:55.482Z,13.20
2023-04-22T02:18:24.088Z,13.16
2023-04-22T02:20:52.961Z,13.12
2023-04-22T02:23:22.100Z,13.01
2023-04-22T02:25:52.040Z,13.05
2023-04-22T02:28:21.193Z,13.04
2023-04-22T02:30:50.290Z,13.07
2023-04-22T02:33:20.621Z,13.08
2023-04-22T02:35:49.967Z,13.03
2023-04-22T02:38:20.509Z,12.99
2023-04-22T02:40:49.318Z,12.90
2023-04-22T02:43:18.027Z,12.81
2023-04-22T02:45:47.168Z,12.82
2023-04-22T02:48:16.010Z,12.78
2023-04-22T02:50:46.440Z,12.73
2023-04-22T02:53:15.195Z,12.69
2023-04-22T02:55:44.320Z,12.65
2023-04-22T02:58:12.898Z,12.64
2023-04-22T03:00:41.880Z,12.63
2023-04-22T03:03:10.825Z,12.64
2023-04-22T03:05:39.858Z,12.64
2023-04-22T03:08:10.638Z,12.62
2023-04-22T03:10:39.759Z,12.63
2023-04-22T03:13:10.791Z,12.62
2023-04-22T03:15:41.419Z,12.57
2023-04-22T03:18:10.368Z,12.56
2023-04-22T03:20:40.646Z,12.53
2023-04-22T03:23:11.430Z,12.50
2023-04-22T03:25:41.196Z,12.48
2023-04-22T03:28:09.820Z,12.46
2023-04-22T03:30:38.917Z,12.42
2023-04-22T03:33:07.558Z,12.37
2023-04-22T03:35:49.856Z,12.36
2023-04-22T03:38:20.570Z,12.32
2023-04-22T03:40:51.722Z,12.23
2023-04-22T03:43:33.157Z,12.24
2023-04-22T03:46:08.208Z,12.19
2023-04-22T03:48:40.368Z,12.23
2023-04-22T03:51:15.291Z,12.12
2023-04-22T03:53:45.544Z,12.06
2023-04-22T03:56:19.342Z,12.06
2023-04-22T03:58:49.015Z,12.05
2023-04-22T04:01:18.536Z,12.03
2023-04-22T04:03:52.117Z,12.00
2023-04-22T04:06:22.353Z,11.98
2023-04-22T04:08:52.366Z,12.01
2023-04-22T04:11:21.611Z,12.01
2023-04-22T04:13:50.968Z,12.04
2023-04-22T04:16:23.993Z,12.04
2023-04-22T04:18:59.668Z,12.05
2023-04-22T04:21:29.439Z,12.06
2023-04-22T04:24:00.136Z,12.08
2023-04-22T04:26:34.664Z,12.08
2023-04-22T04:29:11.063Z,11.75
2023-04-22T04:31:43.289Z,11.85
2023-04-22T04:34:12.006Z,11.88
2023-04-22T04:36:41.078Z,11.92
2023-04-22T04:39:19.016Z,11.97
2023-04-22T04:41:49.172Z,12.01
2023-04-22T04:44:18.761Z,12.06
2023-04-22T04:46:50.664Z,12.09
2023-04-22T04:49:20.894Z,12.13
2023-04-22T04:51:58.799Z,12.21
2023-04-22T04:54:30.677Z,12.26
2023-04-22T04:57:01.954Z,12.23
2023-04-22T04:59:31.297Z,12.28
2023-04-22T05:02:01.006Z,12.34
2023-04-22T05:04:33.825Z,12.38
2023-04-22T05:07:04.223Z,12.44
2023-04-22T05:09:37.867Z,12.52
2023-04-22T05:12:07.233Z,12.54
2023-04-22T05:14:36.958Z,12.61
2023-04-22T05:17:05.944Z,12.67
2023-04-22T05:19:34.476Z,12.70
2023-04-22T05:22:04.084Z,12.71
2023-04-22T05:24:33.410Z,12.75
2023-04-22T05:27:03.786Z,12.80
2023-04-22T05:29:33.647Z,12.84
2023-04-22T05:32:04.725Z,12.81
2023-04-22T05:34:34.266Z,12.61
2023-04-22T05:37:04.379Z,12.61
2023-04-22T05:39:36.206Z,12.65
2023-04-22T05:42:10.261Z,12.77
2023-04-22T05:44:39.914Z,12.88
2023-04-22T05:47:09.077Z,12.89
2023-04-22T05:49:38.235Z,12.85
2023-04-22T05:52:07.497Z,12.97
2023-04-22T05:54:49.002Z,12.98
2023-04-22T05:57:19.320Z,13.05
2023-04-22T05:59:48.078Z,13.10
2023-04-22T06:02:18.108Z,13.23
2023-04-22T06:04:47.108Z,13.29
2023-04-22T06:07:16.196Z,13.03
2023-04-22T06:09:44.958Z,12.95
2023-04-22T06:12:14.063Z,12.70
2023-04-22T06:14:44.291Z,13.03
2023-04-22T06:17:14.402Z,13.18
2023-04-22T06:19:44.283Z,13.28
2023-04-22T06:22:13.523Z,13.11
2023-04-22T06:24:42.634Z,13.21
2023-04-22T06:27:11.853Z,12.97
2023-04-22T06:29:41.402Z,13.36
2023-04-22T06:32:46.899Z,13.69
2023-04-22T06:35:16.119Z,13.69
2023-04-22T06:37:45.578Z,13.26
2023-04-22T06:40:15.831Z,13.55
2023-04-22T06:43:03.025Z,13.83
2023-04-22T06:45:55.158Z,14.08
2023-04-22T06:48:41.077Z,13.72
2023-04-22T06:51:28.637Z,14.16
2023-04-22T06:53:58.629Z,14.55
2023-04-22T06:56:27.737Z,14.82
2023-04-22T06:58:56.660Z,14.84
2023-04-22T07:01:26.248Z,14.66
2023-04-22T07:03:56.824Z,14.82
2023-04-22T07:06:27.981Z,14.93
2023-04-22T07:08:57.333Z,15.25
2023-04-22T07:11:27.778Z,15.49
2023-04-22T07:14:04.263Z,15.79
2023-04-22T07:16:33.551Z,13.80
2023-04-22T07:19:06.115Z,13.60
2023-04-22T07:21:35.131Z,13.67
2023-04-22T07:24:03.881Z,13.35
2023-04-22T07:26:34.521Z,13.01
2023-04-22T07:29:03.205Z,13.39
2023-04-22T07:31:32.095Z,13.73
2023-04-22T07:34:09.002Z,14.40
2023-04-22T07:36:39.564Z,14.90
2023-04-22T07:39:28.887Z,15.50
2023-04-22T07:41:58.748Z,15.87
2023-04-22T07:44:27.849Z,16.23
2023-04-22T07:46:57.352Z,15.27
2023-04-22T07:49:26.289Z,14.96
2023-04-22T07:51:56.826Z,15.58
2023-04-22T07:54:25.696Z,15.68
2023-04-22T07:56:54.715Z,14.82
2023-04-22T07:59:23.433Z,15.08
2023-04-22T08:01:52.631Z,15.26
2023-04-22T08:04:23.028Z,15.86
2023-04-22T08:06:52.564Z,14.80
2023-04-22T08:09:22.637Z,14.35
2023-04-22T08:11:54.506Z,14.12
2023-04-22T08:14:23.282Z,14.08
2023-04-22T08:16:53.326Z,14.06
2023-04-22T08:19:22.060Z,14.38
2023-04-22T08:21:51.764Z,15.14
2023-04-22T08:24:21.006Z,15.63
2023-04-22T08:26:51.683Z,16.14
2023-04-22T08:29:20.560Z,16.26
2023-04-22T08:31:49.767Z,15.11
2023-04-22T08:34:18.438Z,15.20
2023-04-22T08:36:47.537Z,15.34
2023-04-22T08:39:16.146Z,15.60
2023-04-22T08:41:46.904Z,15.58
2023-04-22T08:44:18.605Z,15.33
2023-04-22T08:46:49.226Z,15.44
2023-04-22T08:49:18.930Z,15.08
2023-04-22T08:51:48.021Z,15.60
2023-04-22T08:54:16.975Z,16.10
2023-04-22T08:56:47.119Z,16.45
2023-04-22T08:59:17.790Z,16.27
2023-04-22T09:01:51.125Z,16.76
2023-04-22T09:04:20.729Z,16.84
2023-04-22T09:06:49.885Z,16.82
2023-04-22T09:09:20.489Z,16.62
2023-04-22T09:11:49.594Z,15.87
2023-04-22T09:14:21.104Z,16.37
2023-04-22T09:16:51.163Z,16.73
2023-04-22T09:19:20.093Z,16.87
2023-04-22T09:21:50.826Z,17.01
2023-04-22T09:24:21.737Z,17.50
2023-04-22T09:26:50.767Z,17.77
2023-04-22T09:29:20.908Z,18.11
2023-04-22T09:31:50.904Z,17.81
2023-04-22T09:34:19.977Z,18.21
2023-04-22T09:36:52.183Z,18.48
2023-04-22T09:39:21.125Z,17.85
2023-04-22T09:41:56.612Z,18.40
2023-04-22T09:44:28.980Z,18.60
2023-04-22T09:46:58.170Z,18.52
2023-04-22T09:49:28.908Z,18.57
2023-04-22T09:51:58.604Z,17.78
2023-04-22T09:54:27.378Z,16.54
2023-04-22T09:56:56.799Z,16.81
2023-04-22T09:59:28.950Z,17.36
2023-04-22T10:02:00.920Z,17.83
2023-04-22T10:04:30.120Z,17.88
2023-04-22T10:06:59.998Z,18.31
2023-04-22T10:09:28.631Z,18.55
2023-04-22T10:11:59.203Z,18.80
2023-04-22T10:14:29.359Z,19.05
2023-04-22T10:17:00.795Z,19.18
2023-04-22T10:19:30.225Z,18.85
2023-04-22T10:22:02.366Z,18.87
2023-04-22T10:24:37.448Z,18.93
2023-04-22T10:27:08.516Z,19.23
2023-04-22T10:29:41.051Z,19.48
2023-04-22T10:32:26.137Z,18.87
2023-04-22T10:35:27.492Z,17.93
2023-04-22T10:37:56.877Z,18.53
2023-04-22T10:40:26.052Z,18.87
2023-04-22T10:42:56.016Z,19.28
2023-04-22T10:45:27.606Z,19.55
2023-04-22T10:47:56.600Z,18.74
2023-04-22T10:50:27.830Z,18.38
2023-04-22T10:52:58.760Z,19.00
2023-04-22T10:55:47.991Z,19.43
2023-04-22T10:58:20.900Z,19.72
2023-04-22T11:01:00.219Z,20.19
2023-04-22T11:03:31.234Z,20.61
2023-04-22T11:06:16.375Z,21.08
2023-04-22T11:08:47.259Z,21.17
2023-04-22T11:11:18.660Z,21.33
2023-04-22T11:13:51.972Z,21.39
2023-04-22T11:16:24.485Z,21.51
2023-04-22T11:18:54.201Z,21.56
2023-04-22T11:21:23.772Z,21.10
2023-04-22T11:23:53.635Z,21.00
2023-04-22T11:26:35.429Z,20.99
2023-04-22T11:29:04.913Z,21.04
2023-04-22T11:31:36.829Z,21.44
2023-04-22T11:34:06.090Z,21.63
2023-04-22T11:36:35.029Z,21.70
2023-04-22T11:39:11.220Z,21.63
2023-04-22T11:41:42.426Z,21.56
2023-04-22T11:44:11.341Z,21.61
2023-04-22T11:46:41.446Z,21.64
2023-04-22T11:49:15.188Z,21.76
2023-04-22T11:51:55.245Z,21.72
2023-04-22T11:54:34.603Z,21.85
2023-04-22T11:57:08.343Z,21.89
2023-04-22T11:59:37.538Z,21.99
2023-04-22T12:02:10.398Z,22.19
2023-04-22T12:04:40.493Z,22.22
2023-04-22T12:07:09.659Z,22.31
2023-04-22T12:09:40.494Z,22.27
2023-04-22T12:12:09.664Z,22.15
2023-04-22T12:14:38.877Z,22.14
2023-04-22T12:17:12.164Z,22.28
2023-04-22T12:19:41.812Z,22.22
2023-04-22T12:22:10.694Z,21.89
2023-04-22T12:24:46.575Z,22.29
2023-04-22T12:27:15.527Z,21.81
2023-04-22T12:29:53.509Z,22.35
2023-04-22T12:32:24.973Z,21.06
2023-04-22T12:34:54.729Z,20.76
2023-04-22T12:37:23.306Z,19.82
2023-04-22T12:39:52.345Z,19.47
2023-04-22T12:42:21.151Z,20.08
2023-04-22T12:44:50.303Z,20.57
2023-04-22T12:47:19.077Z,21.82
2023-04-22T12:49:49.657Z,23.03
2023-04-22T12:52:18.364Z,22.63
2023-04-22T12:54:47.604Z,23.22
2023-04-22T12:57:16.293Z,23.81
2023-04-22T12:59:47.351Z,22.88
2023-04-22T13:02:16.142Z,23.52
2023-04-22T13:04:45.749Z,22.69
2023-04-22T13:07:17.482Z,22.47
2023-04-22T13:09:46.506Z,22.71
2023-04-22T13:12:15.409Z,21.65
2023-04-22T13:14:44.652Z,20.17
2023-04-22T13:17:13.418Z,20.88
2023-04-22T13:20:03.974Z,19.72
2023-04-22T13:22:34.425Z,18.50
2023-04-22T13:25:04.350Z,18.62
2023-04-22T13:27:33.253Z,19.21
2023-04-22T13:30:02.423Z,19.65
2023-04-22T13:32:31.159Z,19.97
2023-04-22T13:35:02.680Z,19.58
2023-04-22T13:37:33.403Z,20.02
2023-04-22T13:40:02.293Z,20.39
2023-04-22T13:42:31.412Z,20.71
2023-04-22T13:45:00.673Z,20.95
2023-04-22T13:47:29.416Z,20.97
2023-04-22T13:49:58.923Z,21.22
2023-04-22T13:52:27.789Z,20.35
2023-04-22T13:54:58.170Z,19.57
2023-04-22T13:57:27.406Z,19.10
2023-04-22T13:59:56.383Z,18.38
2023-04-22T14:02:25.054Z,18.39
2023-04-22T14:04:54.297Z,17.80
2023-04-22T14:07:22.976Z,17.66
2023-04-22T14:09:52.146Z,17.56
2023-04-22T14:12:22.370Z,18.21
2023-04-22T14:14:51.385Z,18.68
2023-04-22T14:17:22.193Z,18.89
2023-04-22T14:19:51.252Z,19.07
2023-04-22T14:22:20.003Z,19.43
2023-04-22T14:24:49.098Z,18.69
2023-04-22T14:27:18.033Z,18.61
2023-04-22T14:29:52.383Z,18.86
2023-04-22T14:32:22.289Z,19.36
2023-04-22T14:34:51.788Z,18.77
2023-04-22T14:37:21.647Z,18.66
2023-04-22T14:39:51.595Z,18.87
2023-04-22T14:42:20.704Z,19.00
2023-04-22T14:44:52.310Z,18.89
2023-04-22T14:47:21.003Z,18.38
2023-04-22T14:49:50.024Z,18.58
2023-04-22T14:52:19.020Z,18.65
2023-04-22T14:54:51.284Z,19.11
2023-04-22T14:57:20.733Z,18.41
2023-04-22T14:59:51.743Z,17.81
2023-04-22T15:02:20.678Z,17.71
2023-04-22T15:04:51.784Z,17.74
2023-04-22T15:07:20.503Z,17.93
2023-04-22T15:09:50.096Z,18.19
2023-04-22T15:12:18.761Z,18.47
2023-04-22T15:14:47.943Z,18.75
2023-04-22T15:17:18.480Z,19.06
2023-04-22T15:19:47.593Z,19.27
2023-04-22T15:22:17.423Z,19.48
2023-04-22T15:24:46.395Z,19.35
2023-04-22T15:27:15.516Z,19.62
2023-04-22T15:29:46.521Z,18.97
2023-04-22T15:32:15.335Z,18.74
2023-04-22T15:34:45.795Z,18.47
2023-04-22T15:37:14.778Z,18.60
2023-04-22T15:39:44.644Z,18.88
2023-04-22T15:42:14.265Z,18.45
2023-04-22T15:44:43.506Z,18.77
2023-04-22T15:47:12.471Z,18.69
2023-04-22T15:49:42.013Z,18.45
2023-04-22T15:52:13.255Z,18.85
2023-04-22T15:54:42.622Z,18.53
2023-04-22T15:57:11.293Z,18.14
2023-04-22T15:59:40.671Z,18.14
2023-04-22T16:02:10.920Z,18.18
2023-04-22T16:04:40.361Z,18.07
2023-04-22T16:07:10.294Z,18.57
2023-04-22T16:09:41.216Z,18.86
2023-04-22T16:12:10.069Z,18.09
2023-04-22T16:14:39.281Z,18.17
2023-04-22T16:17:08.726Z,18.19
2023-04-22T16:19:37.807Z,18.48
2023-04-22T16:22:07.703Z,18.72
2023-04-22T16:24:42.585Z,18.27
2023-04-22T16:27:17.144Z,18.76
2023-04-22T16:29:46.953Z,19.10
2023-04-22T16:32:15.611Z,19.22
2023-04-22T16:34:44.714Z,19.29
2023-04-22T16:37:13.543Z,19.47
2023-04-22T16:39:42.754Z,19.54
2023-04-22T16:42:13.678Z,19.63
2023-04-22T16:44:43.327Z,19.66
2023-04-22T16:47:12.492Z,19.73
2023-04-22T16:49:42.130Z,19.70
2023-04-22T16:52:11.295Z,19.76
2023-04-22T16:54:40.810Z,19.73
2023-04-22T16:57:10.471Z,19.77
2023-04-22T16:59:41.629Z,19.73
2023-04-22T17:02:10.660Z,19.74
2023-04-22T17:04:40.502Z,19.77
2023-04-22T17:07:09.107Z,19.80
2023-04-22T17:09:38.119Z,19.78
2023-04-22T17:12:07.426Z,19.76
2023-04-22T17:14:36.762Z,19.76
2023-04-22T17:17:06.847Z,19.74
2023-04-22T17:19:36.480Z,19.66
2023-04-22T17:22:05.353Z,19.60
2023-04-22T17:24:34.419Z,19.53
2023-04-22T17:27:03.147Z,19.51
2023-04-22T17:29:32.220Z,19.49
2023-04-22T17:32:01.221Z,19.46
2023-04-22T17:34:31.657Z,19.43
2023-04-22T17:37:00.568Z,19.42
2023-04-22T17:39:30.945Z,19.38
2023-04-22T17:41:59.852Z,19.34
2023-04-22T17:44:29.213Z,19.29
2023-04-22T17:46:58.600Z,19.24
2023-04-22T17:49:27.882Z,19.16
2023-04-22T17:51:59.679Z,19.11
2023-04-22T17:54:28.985Z,19.05
2023-04-22T17:56:57.791Z,18.98
2023-04-22T17:59:26.778Z,18.93
2023-04-22T18:01:55.696Z,18.86
2023-04-22T18:04:24.795Z,18.79
2023-04-22T18:06:53.490Z,18.73
2023-04-22T18:09:23.791Z,18.67
2023-04-22T18:11:52.598Z,18.66
2023-04-22T18:14:21.636Z,18.57
2023-04-22T18:16:51.216Z,18.52
2023-04-22T18:19:20.287Z,18.50
2023-04-22T18:21:59.540Z,18.46
2023-04-22T18:24:31.009Z,18.39
2023-04-22T18:26:59.680Z,18.33
2023-04-22T18:29:28.740Z,18.20
2023-04-22T18:31:58.045Z,18.14
2023-04-22T18:34:28.565Z,18.06
2023-04-22T18:36:58.035Z,18.02
2023-04-22T18:39:27.327Z,17.96
2023-04-22T18:41:57.737Z,17.91
2023-04-22T18:44:26.836Z,17.82
2023-04-22T18:46:58.622Z,17.81
2023-04-22T18:49:28.091Z,17.72
2023-04-22T18:51:56.799Z,17.65
2023-04-22T18:54:25.836Z,17.58
2023-04-22T18:56:54.628Z,17.55
2023-04-22T18:59:25.072Z,17.55
2023-04-22T19:01:53.734Z,17.51
2023-04-22T19:04:22.750Z,17.46
2023-04-22T19:06:51.437Z,17.43
2023-04-22T19:09:20.384Z,17.41
2023-04-22T19:11:48.970Z,17.41
2023-04-22T19:14:17.960Z,17.36
2023-04-22T19:16:47.985Z,17.32
2023-04-22T19:19:16.943Z,17.29
2023-04-22T19:21:46.066Z,17.26
2023-04-22T19:24:16.288Z,17.22
2023-04-22T19:26:45.537Z,17.20
2023-04-22T19:29:16.999Z,17.18
2023-04-22T19:31:45.678Z,17.17
2023-04-22T19:34:15.953Z,17.15
2023-04-22T19:36:44.557Z,17.12
2023-04-22T19:39:13.525Z,17.09
2023-04-22T19:41:42.206Z,17.08
2023-04-22T19:44:11.773Z,17.03
2023-04-22T19:46:40.808Z,17.03
2023-04-22T19:49:10.609Z,17.03
2023-04-22T19:51:43.037Z,17.03
2023-04-22T19:54:13.677Z,16.98
2023-04-22T19:56:42.929Z,16.88
2023-04-22T19:59:14.645Z,16.83
2023-04-22T20:01:43.838Z,16.75
2023-04-22T20:04:13.251Z,16.67
2023-04-22T20:06:45.854Z,16.68
2023-04-22T20:09:15.483Z,16.64
2023-04-22T20:11:44.872Z,16.61
2023-04-22T20:14:14.320Z,16.55
2023-04-22T20:16:43.396Z,16.52
2023-04-22T20:19:13.962Z,16.38
2023-04-22T20:21:45.452Z,16.38
2023-04-22T20:24:19.385Z,16.32
2023-04-22T20:26:49.623Z,16.32
2023-04-22T20:29:19.314Z,16.27
2023-04-22T20:31:48.503Z,16.22
2023-04-22T20:34:17.510Z,16.13
2023-04-22T20:36:49.486Z,15.97
2023-04-22T20:39:18.705Z,16.04
2023-04-22T20:41:49.029Z,16.02
2023-04-22T20:44:18.280Z,16.04
2023-04-22T20:46:46.903Z,16.02
2023-04-22T20:49:16.628Z,16.02
2023-04-22T20:51:45.288Z,16.02
2023-04-22T20:54:27.858Z,16.02
2023-04-22T20:56:57.894Z,15.99
2023-04-22T20:59:26.873Z,15.95
2023-04-22T21:01:56.517Z,15.91
2023-04-22T21:04:26.393Z,15.82
2023-04-22T21:06:56.310Z,15.85
2023-04-22T21:09:27.161Z,15.87
2023-04-22T21:11:56.194Z,15.87
2023-04-22T21:14:26.954Z,15.89
2023-04-22T21:17:02.355Z,15.97
2023-04-22T21:19:33.852Z,15.98
2023-04-22T21:22:06.223Z,16.00
2023-04-22T21:24:37.393Z,15.99
2023-04-22T21:27:07.071Z,15.95
2023-04-22T21:29:38.090Z,15.88
2023-04-22T21:32:09.813Z,15.83
2023-04-22T21:34:39.338Z,15.86
2023-04-22T21:37:09.407Z,15.81
2023-04-22T21:39:39.720Z,15.79
2023-04-22T21:42:08.980Z,15.73
2023-04-22T21:44:38.852Z,15.73
2023-04-22T21:47:07.519Z,15.68
2023-04-22T21:49:36.572Z,15.66
2023-04-22T21:52:05.630Z,15.59
2023-04-22T21:54:34.530Z,15.42
2023-04-22T21:57:04.682Z,15.34
2023-04-22T21:59:33.568Z,15.07
2023-04-22T22:02:02.311Z,14.95
2023-04-22T22:04:31.446Z,14.85
2023-04-22T22:07:00.214Z,14.94
2023-04-22T22:09:29.258Z,14.79
2023-04-22T22:11:58.345Z,14.89
2023-04-22T22:14:28.717Z,14.82
2023-04-22T22:16:57.360Z,14.58
2023-04-22T22:19:27.988Z,14.51
2023-04-22T22:21:56.680Z,14.47
2023-04-22T22:24:26.016Z,14.59
2023-04-22T22:26:54.648Z,14.55
2023-04-22T22:29:23.534Z,14.75
2023-04-22T22:31:53.759Z,14.44
2023-04-22T22:34:22.610Z,14.57
2023-04-22T22:36:51.540Z,14.64
2023-04-22T22:39:20.535Z,14.63
2023-04-22T22:41:49.316Z,14.77
2023-04-22T22:44:18.343Z,14.76
2023-04-22T22:46:47.401Z,14.77
2023-04-22T22:49:17.843Z,14.63
2023-04-22T22:51:46.561Z,14.65
2023-04-22T22:54:15.556Z,14.63
2023-04-22T22:56:44.151Z,14.59
2023-04-22T22:59:13.103Z,14.54
2023-04-22T23:01:41.855Z,14.78
2023-04-22T23:04:11.253Z,14.83
2023-04-22T23:06:41.667Z,14.78
2023-04-22T23:09:11.046Z,14.79
2023-04-22T23:11:39.629Z,14.82
2023-04-22T23:14:09.702Z,14.83
2023-04-22T23:16:39.123Z,14.90
2023-04-22T23:19:08.550Z,14.79
2023-04-22T23:21:39.102Z,14.88
2023-04-22T23:24:10.791Z,14.91
2023-04-22T23:26:39.971Z,14.96
2023-04-22T23:29:09.354Z,14.99
2023-04-22T23:31:40.809Z,14.94
2023-04-22T23:34:10.628Z,14.90
2023-04-22T23:36:39.483Z,14.88
2023-04-22T23:39:09.847Z,14.85
2023-04-22T23:41:38.473Z,14.70
2023-04-22T23:44:07.618Z,14.65
2023-04-22T23:46:36.397Z,14.45
2023-04-22T23:49:05.532Z,14.13
2023-04-22T23:51:34.336Z,13.88
2023-04-22T23:54:03.442Z,13.81
2023-04-22T23:56:34.366Z,13.97
2023-04-22T23:59:03.833Z,13.77
